EST,Max TemperatureF,Mean TemperatureF,Min TemperatureF,Max Dew PointF,MeanDew PointF,Min DewpointF,Max Humidity, Mean Humidity, Min Humidity, Max Sea Level PressureIn, Mean Sea Level PressureIn, Min Sea Level PressureIn, Max VisibilityMiles, Mean VisibilityMiles, Min VisibilityMiles, Max Wind SpeedMPH, Mean Wind SpeedMPH, Max Gust SpeedMPH,PrecipitationIn, CloudCover, Events, WindDirDegrees
2014-1-1,51,39,27,37,32,26,100,74,48,30.36,30.25,30.12,10,10,7,10,2,13,0.00,2,,165
2014-1-2,51,38,25,48,39,13,100,78,55,30.22,29.95,29.80,10,6,2,25,8,37,0.26,7,Rain,292
2014-1-3,34,27,20,15,11,9,68,52,35,30.47,30.37,30.25,10,10,10,24,7,32,T,2,,349
2014-1-4,41,29,16,28,20,13,92,70,47,30.41,30.31,30.19,10,10,10,14,5,17,0.00,5,,141
2014-1-5,50,43,36,49,39,29,100,85,70,30.17,29.95,29.73,10,8,2,26,4,39,0.21,8,Rain,193
2014-1-6,41,26,11,36,13,-2,93,68,43,30.50,30.21,29.88,10,10,9,23,12,31,0.02,4,Rain,305
2014-1-7,25,16,6,10,0,-4,80,58,36,30.61,30.54,30.51,10,10,10,15,4,22,T,0,,338
2014-1-8,45,28,10,20,12,8,92,57,22,30.59,30.50,30.44,10,10,10,7,1,15,0.00,0,,20
2014-1-9,50,36,21,40,27,19,92,66,39,30.52,30.42,30.35,10,10,8,9,3,15,0.02,5,Rain,118
2014-1-10,50,45,39,49,43,39,100,96,92,30.33,30.19,29.97,10,4,1,9,2,12,0.23,8,Rain,163
2014-1-11,64,55,46,58,49,34,100,67,34,29.96,29.80,29.70,10,6,1,26,6,36,1.81,6,Rain-Thunderstorm,250
2014-1-12,59,45,30,40,34,29,100,68,36,30.17,30.09,29.98,10,10,10,9,2,12,0.00,0,,248
2014-1-13,50,41,31,48,41,30,100,83,66,30.14,29.99,29.86,10,7,2,10,2,13,0.43,6,Rain,114
2014-1-14,59,46,33,49,42,32,100,70,40,30.01,29.89,29.81,10,8,2,13,3,17,0.10,4,Rain,295
2014-1-15,47,38,28,35,27,13,92,60,28,30.11,30.02,29.96,10,10,10,17,7,24,T,4,Rain,310
2014-1-16,45,32,19,23,19,17,91,62,33,30.14,30.05,29.94,10,10,10,10,2,15,0.00,0,,217
2014-1-17,49,36,22,31,21,14,88,61,33,30.13,30.00,29.93,10,10,10,21,6,28,0.00,2,,279
2014-1-18,44,33,21,19,14,11,68,47,25,30.23,30.10,29.95,10,10,9,17,5,25,0.00,1,,255
2014-1-19,52,40,28,28,25,20,85,62,38,30.10,30.03,29.93,10,10,9,14,4,17,0.00,1,,265
2014-1-20,62,43,23,31,27,22,92,61,29,30.05,29.97,29.87,10,10,10,12,2,15,0.00,0,,217
2014-1-21,47,35,23,31,24,12,82,66,49,30.10,29.90,29.74,10,10,10,25,10,32,T,5,Rain,313
2014-1-22,35,25,14,12,4,-1,68,47,25,30.22,30.14,30.08,10,10,10,14,5,21,0.00,2,,335
2014-1-23,37,26,15,16,8,-4,88,59,29,30.62,30.39,30.19,10,10,9,99,6,21,T,2,Rain,336
2014-1-24,32,21,9,5,0,-4,73,48,22,30.68,30.54,30.30,10,10,10,13,3,26,0.00,0,,7
2014-1-25,46,27,7,19,12,4,83,57,30,30.25,30.02,29.88,10,10,6,16,4,22,0.00,3,,247
2014-1-26,57,38,19,30,24,17,91,63,35,30.01,29.94,29.87,10,10,7,14,2,18,0.00,0,,208
2014-1-27,55,41,26,35,23,1,82,53,23,30.19,29.98,29.85,10,10,10,21,8,36,T,3,Rain,351
2014-1-28,26,23,19,18,10,-1,91,62,32,30.31,30.25,30.19,10,7,0,18,11,28,0.21,6,Fog-Snow,355
2014-1-29,30,19,8,7,1,-3,76,54,31,30.41,30.36,30.31,10,10,10,17,7,21,0.00,0,,356
2014-1-30,41,20,-1,18,9,-4,95,65,34,30.40,30.29,30.17,10,10,10,12,2,15,0.00,0,,131
2014-1-31,53,35,16,22,17,12,92,57,21,30.26,30.19,30.13,10,10,7,6,0,16,0.00,0,,160